Time;durP1;ratioP1;P1;durP2;ratioP2;P2;SDS_P1;SDS_P2;PMS_P1;PMS_P2;Temp;Humidity;BMP_temperature;BMP_pressure;BME280_temperature;BME280_humidity;BME280_pressure;Samples;Min_cycle;Max_cycle;Signal;HPM_P1;HPM_P2
2022/04/11 00:02:08;;;;;;;;;;;;;;;11.28;39.36;99899.31;4493262;31;33779;-68
2022/04/11 00:04:37;;;;;;;;;;;;;;;11.52;38.12;99896.56;4485945;31;34369;-66
2022/04/11 00:07:06;;;;;;;;;;;;;;;11.17;39.06;99902.75;4485009;31;32855;-68
2022/04/11 00:09:35;;;;;;;;;;;;;;;11.39;38.34;99900.19;4484927;31;33303;-67
2022/04/11 00:12:04;;;;;;;;;;;;;;;11.37;38.62;99898.59;4488267;31;33004;-66
2022/04/11 00:14:33;;;;;;;;;;;;;;;11.42;38.49;99899.94;4486694;31;32507;-69
2022/04/11 00:17:02;;;;;;;;;;;;;;;11.36;38.63;99905.78;4483785;31;32729;-69
2022/04/11 00:19:31;;;;;;;;;;;;;;;11.34;38.23;99907.72;4487271;31;33434;-67
2022/04/11 00:22:00;;;;;;;;;;;;;;;11.27;39.11;99911.84;4484914;31;33344;-68
2022/04/11 00:24:28;;;;;;;;;;;;;;;11.22;39.25;99910.47;4484546;31;33534;-66
2022/04/11 00:26:57;;;;;;;;;;;;;;;11.07;38.94;99901.75;4486056;31;32878;-66
2022/04/11 00:29:27;;;;;;;;;;;;;;;10.20;41.71;99917.78;4497021;31;35037;-68
2022/04/11 00:31:56;;;;;;;;;;;;;;;10.62;40.46;99912.19;4488351;31;34448;-65
2022/04/11 00:34:27;;;;;;;;;;;;;;;10.60;39.88;99923.00;4484057;31;32653;-65
2022/04/11 00:36:56;;;;;;;;;;;;;;;10.46;39.97;99918.66;4487817;31;33176;-69
2022/04/11 00:39:26;;;;;;;;;;;;;;;10.54;40.99;99922.59;4489690;31;33372;-65
2022/04/11 00:41:55;;;;;;;;;;;;;;;10.49;40.82;99921.09;4488085;31;34063;-66
2022/04/11 00:44:24;;;;;;;;;;;;;;;10.39;40.89;99920.03;4490978;31;33466;-66
2022/04/11 00:46:54;;;;;;;;;;;;;;;10.60;40.09;99923.00;4492129;31;34283;-68
2022/04/11 00:49:24;;;;;;;;;;;;;;;10.56;40.08;99921.53;4485383;31;34050;-65
2022/04/11 00:51:53;;;;;;;;;;;;;;;10.38;41.74;99931.72;4486963;31;35187;-65
2022/04/11 00:54:22;;;;;;;;;;;;;;;10.25;41.26;99930.84;4484538;31;33510;-65
2022/04/11 00:56:53;;;;;;;;;;;;;;;10.44;40.40;99931.28;4486039;31;32933;-65
2022/04/11 00:59:22;;;;;;;;;;;;;;;10.52;40.27;99930.72;4474309;32;34102;-64
2022/04/11 01:01:52;;;;;;;;;;;;;;;10.41;41.39;99933.31;4483785;31;34374;-65
2022/04/11 01:04:27;;;;;;;;;;;;;;;10.47;41.07;99935.56;4485567;31;32523;-66
2022/04/11 01:07:00;;;;;;;;;;;;;;;10.57;40.39;99938.44;4487731;31;32961;-67
2022/04/11 01:09:30;;;;;;;;;;;;;;;10.54;40.00;99934.16;4496300;31;34397;-65
2022/04/11 01:11:59;;;;;;;;;;;;;;;10.68;40.48;99935.81;4477123;32;33723;-65
2022/04/11 01:14:28;;;;;;;;;;;;;;;10.81;39.76;99936.66;4473583;31;33289;-69
2022/04/11 01:16:58;;;;;;;;;;;;;;;10.63;39.95;99927.28;4484499;31;34303;-69
2022/04/11 01:19:27;;;;;;;;;;;;;;;10.67;39.44;99924.28;4488406;31;34355;-65
2022/04/11 01:21:56;;;;;;;;;;;;;;;10.40;40.44;99923.56;4485145;31;34404;-64
2022/04/11 01:24:24;;;;;;;;;;;;;;;10.36;40.53;99930.97;4489215;31;33495;-66
2022/04/11 01:26:54;;;;;;;;;;;;;;;10.51;40.15;99936.19;4471076;31;35643;-67
2022/04/11 01:29:23;;;;;;;;;;;;;;;10.54;40.13;99944.00;4486436;31;33042;-66
2022/04/11 01:31:51;;;;;;;;;;;;;;;10.51;40.44;99942.41;4477547;31;32704;-68
2022/04/11 01:34:21;;;;;;;;;;;;;;;10.52;40.87;99943.25;4493548;31;33508;-67
2022/04/11 01:36:51;;;;;;;;;;;;;;;10.24;41.08;99939.81;4493247;31;32788;-69
2022/04/11 01:39:20;;;;;;;;;;;;;;;10.41;40.64;99952.91;4485550;31;33449;-67
2022/04/11 01:41:49;;;;;;;;;;;;;;;9.62;42.54;99951.22;4483585;31;33954;-69
2022/04/11 01:44:19;;;;;;;;;;;;;;;10.26;40.58;99964.69;4490616;31;32448;-67
2022/04/11 01:46:50;;;;;;;;;;;;;;;10.24;40.31;99964.78;4488330;31;34322;-69
2022/04/11 01:49:19;;;;;;;;;;;;;;;10.34;41.04;99959.66;4489554;31;32243;-65
2022/04/11 01:51:49;;;;;;;;;;;;;;;10.59;40.18;99968.59;4483936;31;34229;-67
2022/04/11 01:54:18;;;;;;;;;;;;;;;10.44;40.09;99955.37;4486650;31;33627;-68
2022/04/11 01:56:46;;;;;;;;;;;;;;;10.39;40.51;99962.00;4491812;31;33029;-68
2022/04/11 01:59:16;;;;;;;;;;;;;;;10.79;39.56;99959.16;4481031;32;34477;-66
2022/04/11 02:01:45;;;;;;;;;;;;;;;10.71;39.27;99960.56;4486920;31;34923;-67
2022/04/11 02:04:15;;;;;;;;;;;;;;;10.70;39.50;99966.03;4488104;31;32715;-68
2022/04/11 02:06:43;;;;;;;;;;;;;;;10.79;39.48;99962.69;4483599;31;34100;-68
2022/04/11 02:09:12;;;;;;;;;;;;;;;10.16;40.50;99972.47;4495248;31;33137;-66
2022/04/11 02:11:41;;;;;;;;;;;;;;;10.51;39.82;99957.59;4482070;32;34389;-65
2022/04/11 02:14:10;;;;;;;;;;;;;;;10.57;40.10;99967.88;4484546;31;33487;-67
2022/04/11 02:16:38;;;;;;;;;;;;;;;10.24;41.26;99967.44;4485062;31;33037;-66
2022/04/11 02:19:06;;;;;;;;;;;;;;;10.03;42.13;99979.63;4483743;32;34409;-68
2022/04/11 02:21:35;;;;;;;;;;;;;;;10.23;40.97;99967.53;4481339;31;34344;-66
2022/04/11 02:24:04;;;;;;;;;;;;;;;9.78;42.71;99973.25;4487687;31;34488;-68
2022/04/11 02:26:33;;;;;;;;;;;;;;;9.70;42.90;99972.09;4486526;31;33908;-68
2022/04/11 02:29:02;;;;;;;;;;;;;;;9.82;44.10;99975.72;4486201;31;34481;-66
2022/04/11 02:31:31;;;;;;;;;;;;;;;10.04;42.18;99975.97;4487832;31;34307;-66
2022/04/11 02:34:00;;;;;;;;;;;;;;;9.89;42.73;99990.41;4490135;31;32915;-67
2022/04/11 02:36:29;;;;;;;;;;;;;;;9.96;43.13;99978.34;4487832;31;34097;-67
2022/04/11 02:38:57;;;;;;;;;;;;;;;10.02;42.62;99986.78;4496597;31;34636;-67
2022/04/11 02:41:26;;;;;;;;;;;;;;;10.35;41.35;99979.25;4495123;31;32927;-67
2022/04/11 02:43:55;;;;;;;;;;;;;;;10.04;41.90;99986.66;4484142;31;33715;-68
2022/04/11 02:46:24;;;;;;;;;;;;;;;10.22;42.09;99981.88;4484392;31;33169;-68
2022/04/11 02:48:54;;;;;;;;;;;;;;;9.59;44.49;99979.97;4485668;31;34404;-68
2022/04/11 02:51:23;;;;;;;;;;;;;;;10.15;41.63;99992.16;4481570;31;34102;-67
2022/04/11 02:53:52;;;;;;;;;;;;;;;10.24;40.95;99987.97;4487671;31;32189;-68
2022/04/11 02:56:21;;;;;;;;;;;;;;;10.31;40.66;99983.09;4494427;31;32986;-68
2022/04/11 02:58:51;;;;;;;;;;;;;;;9.96;41.29;99984.53;4489145;31;34306;-66
2022/04/11 03:01:21;;;;;;;;;;;;;;;9.60;42.76;99993.22;4483724;31;34354;-69
2022/04/11 03:03:52;;;;;;;;;;;;;;;9.40;42.66;99994.53;4488294;31;33638;-65
2022/04/11 03:06:21;;;;;;;;;;;;;;;9.85;41.60;99999.59;4493831;31;32699;-68
2022/04/11 03:08:51;;;;;;;;;;;;;;;9.99;41.22;99994.16;4491705;31;35204;-66
2022/04/11 03:11:21;;;;;;;;;;;;;;;9.96;41.90;100003.25;4493656;31;33056;-67
2022/04/11 03:13:51;;;;;;;;;;;;;;;10.13;41.03;100002.09;4489469;31;31833;-66
2022/04/11 03:16:20;;;;;;;;;;;;;;;9.46;42.72;99999.47;4495578;31;35366;-65
2022/04/11 03:18:48;;;;;;;;;;;;;;;9.44;44.23;99993.41;4495901;31;35247;-67
2022/04/11 03:21:16;;;;;;;;;;;;;;;9.37;43.38;100001.91;4490977;31;33681;-65
2022/04/11 03:23:46;;;;;;;;;;;;;;;9.76;42.05;100001.94;4487019;31;32907;-66
2022/04/11 03:26:14;;;;;;;;;;;;;;;9.23;43.09;99998.31;4491243;31;33175;-67
2022/04/11 03:28:43;;;;;;;;;;;;;;;9.22;43.25;100003.78;4481825;32;34186;-68
2022/04/11 03:31:12;;;;;;;;;;;;;;;9.56;42.50;100002.38;4482283;32;33911;-68
2022/04/11 03:33:41;;;;;;;;;;;;;;;9.84;41.61;100009.44;4482560;32;33499;-67
2022/04/11 03:36:10;;;;;;;;;;;;;;;9.24;44.29;100012.53;4484143;31;34182;-67
2022/04/11 03:38:39;;;;;;;;;;;;;;;9.59;42.69;100015.56;4497336;31;35429;-65
2022/04/11 03:41:09;;;;;;;;;;;;;;;9.59;42.85;100020.03;4483248;31;33991;-66
2022/04/11 03:43:38;;;;;;;;;;;;;;;9.59;42.45;100020.91;4490307;31;34722;-65
2022/04/11 03:46:06;;;;;;;;;;;;;;;9.53;42.69;100023.97;4483153;31;33959;-67
2022/04/11 03:48:36;;;;;;;;;;;;;;;9.67;42.42;100029.28;4485708;31;34329;-69
2022/04/11 03:51:07;;;;;;;;;;;;;;;9.98;41.49;100033.44;4486778;31;33604;-68
2022/04/11 03:53:37;;;;;;;;;;;;;;;10.00;41.34;100039.50;4489149;31;33909;-67
2022/04/11 03:56:05;;;;;;;;;;;;;;;9.92;41.68;100032.97;4492962;31;34060;-65
2022/04/11 03:58:34;;;;;;;;;;;;;;;9.91;41.64;100040.13;4487463;31;34995;-66
2022/04/11 04:01:03;;;;;;;;;;;;;;;10.03;41.40;100041.13;4486699;31;34210;-66
2022/04/11 04:03:32;;;;;;;;;;;;;;;9.61;42.47;100035.03;4481814;32;33376;-70
2022/04/11 04:06:00;;;;;;;;;;;;;;;9.97;41.79;100036.19;4482130;32;34118;-66
2022/04/11 04:08:30;;;;;;;;;;;;;;;10.12;42.02;100040.50;4488894;31;34451;-66
2022/04/11 04:10:58;;;;;;;;;;;;;;;10.20;41.39;100048.84;4483494;31;34934;-67
2022/04/11 04:13:29;;;;;;;;;;;;;;;10.30;41.16;100041.06;4485232;31;33212;-67
2022/04/11 04:15:58;;;;;;;;;;;;;;;10.36;40.85;100051.34;4489623;31;33737;-66
2022/04/11 04:18:27;;;;;;;;;;;;;;;10.14;41.72;100051.94;4489189;31;34059;-68
2022/04/11 04:20:56;;;;;;;;;;;;;;;10.08;41.31;100048.81;4486150;31;35028;-66
2022/04/11 04:23:25;;;;;;;;;;;;;;;10.00;42.34;100047.53;4484261;31;33116;-66
2022/04/11 04:25:53;;;;;;;;;;;;;;;9.49;43.34;100063.41;4468698;32;33777;-66
2022/04/11 04:28:22;;;;;;;;;;;;;;;9.91;43.36;100058.84;4473288;31;32869;-65
2022/04/11 04:30:51;;;;;;;;;;;;;;;10.18;41.69;100066.84;4481700;32;35166;-66
2022/04/11 04:33:20;;;;;;;;;;;;;;;10.20;42.07;100064.03;4481427;32;32665;-65
2022/04/11 04:35:49;;;;;;;;;;;;;;;10.35;41.34;100068.38;4489058;31;34644;-70
2022/04/11 04:38:17;;;;;;;;;;;;;;;10.32;41.75;100071.28;4495686;31;34260;-70
2022/04/11 04:40:45;;;;;;;;;;;;;;;10.13;43.10;100078.81;4497034;31;34444;-67
2022/04/11 04:43:14;;;;;;;;;;;;;;;10.65;41.30;100076.09;4492752;31;34372;-64
2022/04/11 04:45:45;;;;;;;;;;;;;;;10.28;42.81;100071.59;4485190;31;35296;-66
2022/04/11 04:48:14;;;;;;;;;;;;;;;10.07;42.62;100074.72;4493437;31;32988;-67
2022/04/11 04:50:43;;;;;;;;;;;;;;;10.49;42.68;100073.63;4495423;31;34279;-66
2022/04/11 04:53:11;;;;;;;;;;;;;;;10.78;41.65;100077.91;4481851;31;33292;-66
2022/04/11 04:55:40;;;;;;;;;;;;;;;10.62;42.33;100083.50;4490533;31;34038;-66
2022/04/11 04:58:08;;;;;;;;;;;;;;;10.70;41.74;100083.81;4491310;31;34175;-66
2022/04/11 05:00:36;;;;;;;;;;;;;;;10.79;41.51;100082.34;4487159;31;34186;-66
2022/04/11 05:03:04;;;;;;;;;;;;;;;11.07;41.15;100081.22;4488701;31;32982;-67
2022/04/11 05:05:35;;;;;;;;;;;;;;;10.83;41.49;100079.31;4493727;31;32987;-66
2022/04/11 05:08:04;;;;;;;;;;;;;;;10.72;43.24;100085.44;4482915;31;33489;-66
2022/04/11 05:10:32;;;;;;;;;;;;;;;11.28;40.41;100085.03;4493660;31;34504;-69
2022/04/11 05:13:00;;;;;;;;;;;;;;;11.51;40.03;100090.53;4496935;31;33311;-68
2022/04/11 05:15:29;;;;;;;;;;;;;;;11.03;41.72;100091.28;4497871;31;33742;-66
2022/04/11 05:17:57;;;;;;;;;;;;;;;11.58;40.57;100087.28;4496867;31;34185;-66
2022/04/11 05:20:26;;;;;;;;;;;;;;;11.78;40.04;100088.53;4488373;31;30550;-66
2022/04/11 05:22:54;;;;;;;;;;;;;;;11.85;39.34;100083.59;4487570;31;33290;-66
2022/04/11 05:25:24;;;;;;;;;;;;;;;11.57;40.46;100096.31;4481428;31;33348;-67
2022/04/11 05:27:52;;;;;;;;;;;;;;;12.06;39.39;100090.00;4482369;31;34408;-66
2022/04/11 05:30:21;;;;;;;;;;;;;;;12.59;38.60;100092.25;4486469;31;34401;-66
2022/04/11 05:32:50;;;;;;;;;;;;;;;12.72;38.12;100090.31;4489843;31;34801;-67
2022/04/11 05:35:19;;;;;;;;;;;;;;;13.23;36.48;100089.00;4480006;32;34180;-65
2022/04/11 05:37:47;;;;;;;;;;;;;;;13.32;35.98;100090.97;4481316;32;34390;-66
2022/04/11 05:40:15;;;;;;;;;;;;;;;13.40;35.87;100087.66;4482823;31;33864;-70
2022/04/11 05:42:43;;;;;;;;;;;;;;;13.72;35.03;100093.94;4489106;31;33427;-71
2022/04/11 05:45:13;;;;;;;;;;;;;;;13.34;36.61;100096.22;4488917;31;32934;-66
2022/04/11 05:47:41;;;;;;;;;;;;;;;13.72;34.76;100095.78;4484915;31;33096;-66
2022/04/11 05:50:10;;;;;;;;;;;;;;;12.59;38.40;100092.25;4493807;31;33998;-67
2022/04/11 05:52:39;;;;;;;;;;;;;;;13.18;37.05;100097.41;4498331;31;32518;-69
2022/04/11 05:55:07;;;;;;;;;;;;;;;12.56;39.25;100103.22;4490006;31;34199;-68
2022/04/11 05:57:35;;;;;;;;;;;;;;;13.35;36.04;100100.63;4490214;31;34011;-65
2022/04/11 06:00:05;;;;;;;;;;;;;;;13.69;37.43;100096.91;4497452;31;32751;-65
2022/04/11 06:02:39;;;;;;;;;;;;;;;14.40;36.10;100101.75;4481388;32;33739;-65
2022/04/11 06:05:09;;;;;;;;;;;;;;;14.43;34.03;100104.19;4473729;32;32659;-66
2022/04/11 06:07:38;;;;;;;;;;;;;;;14.39;34.73;100094.69;4482362;32;35492;-65
2022/04/11 06:10:08;;;;;;;;;;;;;;;13.69;34.56;100090.66;4486589;31;34067;-65
2022/04/11 06:12:36;;;;;;;;;;;;;;;12.63;38.62;100096.41;4481587;31;33709;-67
2022/04/11 06:15:05;;;;;;;;;;;;;;;13.48;37.30;100087.87;4495274;31;34304;-66
2022/04/11 06:17:33;;;;;;;;;;;;;;;13.33;37.89;100086.47;4491860;31;34120;-65
2022/04/11 06:20:02;;;;;;;;;;;;;;;13.65;36.46;100086.53;4492352;31;34576;-65
2022/04/11 06:22:31;;;;;;;;;;;;;;;13.18;38.22;100086.66;4488581;31;34784;-67
2022/04/11 06:25:00;;;;;;;;;;;;;;;12.15;40.94;100087.63;4496372;31;32949;-66
2022/04/11 06:27:30;;;;;;;;;;;;;;;13.32;37.55;100082.88;4484594;31;33539;-65
2022/04/11 06:29:58;;;;;;;;;;;;;;;13.04;37.25;100086.94;4491566;31;35063;-66
2022/04/11 06:32:27;;;;;;;;;;;;;;;12.42;39.87;100081.94;4495882;31;33454;-66
2022/04/11 06:34:56;;;;;;;;;;;;;;;12.69;37.79;100089.72;4473334;31;32948;-68
2022/04/11 06:37:25;;;;;;;;;;;;;;;12.32;38.12;100088.03;4483849;31;34250;-67
2022/04/11 06:39:54;;;;;;;;;;;;;;;12.48;39.53;100092.22;4491378;31;33046;-66
2022/04/11 06:42:23;;;;;;;;;;;;;;;12.70;39.55;100086.88;4495725;31;34403;-65
2022/04/11 06:44:52;;;;;;;;;;;;;;;12.93;39.52;100089.59;4492085;31;32873;-66
2022/04/11 06:47:21;;;;;;;;;;;;;;;12.55;39.73;100093.44;4485142;31;35088;-67
2022/04/11 06:49:49;;;;;;;;;;;;;;;12.55;38.21;100093.44;4496537;31;33836;-66
2022/04/11 06:52:17;;;;;;;;;;;;;;;12.14;39.95;100093.97;4482588;31;33815;-66
2022/04/11 06:54:46;;;;;;;;;;;;;;;12.65;39.85;100098.97;4482899;31;34075;-65
2022/04/11 06:57:14;;;;;;;;;;;;;;;13.01;38.77;100100.59;4492926;31;35168;-66
2022/04/11 06:59:42;;;;;;;;;;;;;;;12.12;40.57;100108.31;4480251;31;33986;-67
2022/04/11 07:02:10;;;;;;;;;;;;;;;13.16;39.18;100102.09;4481924;31;33330;-66
2022/04/11 07:04:40;;;;;;;;;;;;;;;13.46;36.80;100103.31;4482342;31;34945;-65
2022/04/11 07:07:08;;;;;;;;;;;;;;;13.14;37.64;100112.09;4473549;31;33018;-66
2022/04/11 07:09:37;;;;;;;;;;;;;;;12.83;38.35;100110.97;4497832;31;35895;-65
2022/04/11 07:12:05;;;;;;;;;;;;;;;12.47;40.02;100120.03;4470650;32;33134;-65
2022/04/11 07:14:33;;;;;;;;;;;;;;;12.29;41.34;100114.25;4490495;31;34228;-67
2022/04/11 07:17:07;;;;;;;;;;;;;;;12.53;41.47;100109.69;4486920;31;33097;-70
2022/04/11 07:19:35;;;;;;;;;;;;;;;12.50;41.88;100120.66;4483615;31;34116;-66
2022/04/11 07:22:03;;;;;;;;;;;;;;;12.92;39.25;100115.63;4485114;31;31726;-67
2022/04/11 07:24:35;;;;;;;;;;;;;;;12.40;41.22;100110.75;4487070;31;35239;-67
2022/04/11 07:27:06;;;;;;;;;;;;;;;12.98;38.79;100116.97;4475973;31;35272;-68
2022/04/11 07:29:35;;;;;;;;;;;;;;;12.59;39.10;100114.59;4493113;31;35212;-72
2022/04/11 07:32:04;;;;;;;;;;;;;;;13.19;38.09;100115.28;4498009;31;31884;-67
2022/04/11 07:34:33;;;;;;;;;;;;;;;12.40;40.93;100116.13;4497052;31;34025;-67
2022/04/11 07:37:02;;;;;;;;;;;;;;;12.81;39.61;100108.41;4487908;31;34093;-65
2022/04/11 07:39:31;;;;;;;;;;;;;;;13.41;38.46;100106.34;4489845;31;32894;-66
2022/04/11 07:42:00;;;;;;;;;;;;;;;12.41;41.16;100107.09;4488517;31;33563;-67
2022/04/11 07:44:29;;;;;;;;;;;;;;;13.48;39.33;100110.28;4494108;31;33144;-68
2022/04/11 07:46:58;;;;;;;;;;;;;;;13.21;37.47;100105.25;4471891;31;34109;-67
2022/04/11 07:49:26;;;;;;;;;;;;;;;13.00;37.84;100106.94;4485360;31;34048;-65
2022/04/11 07:51:55;;;;;;;;;;;;;;;13.06;39.06;100103.75;4489335;31;33018;-68
2022/04/11 07:54:23;;;;;;;;;;;;;;;12.87;40.76;100109.72;4484736;31;34201;-67
2022/04/11 07:56:51;;;;;;;;;;;;;;;13.10;39.20;100107.94;4484980;31;35277;-67
2022/04/11 07:59:21;;;;;;;;;;;;;;;12.59;38.32;100106.53;4491186;31;34439;-69
2022/04/11 08:01:52;;;;;;;;;;;;;;;12.69;39.15;100108.50;4486195;31;33036;-68
2022/04/11 08:04:21;;;;;;;;;;;;;;;13.20;39.47;100108.91;4488041;31;33044;-68
2022/04/11 08:06:50;;;;;;;;;;;;;;;13.50;38.20;100104.75;4479056;31;33065;-68
2022/04/11 08:09:19;;;;;;;;;;;;;;;13.47;36.23;100108.53;4486542;31;35481;-67
2022/04/11 08:11:49;;;;;;;;;;;;;;;13.17;38.47;100106.47;4490933;31;32088;-66
2022/04/11 08:14:17;;;;;;;;;;;;;;;13.45;38.04;100110.53;4489021;31;33076;-66
2022/04/11 08:16:47;;;;;;;;;;;;;;;14.30;36.19;100107.06;4488531;31;34523;-67
2022/04/11 08:19:17;;;;;;;;;;;;;;;14.50;35.37;100110.75;4468959;32;34492;-64
2022/04/11 08:21:46;;;;;;;;;;;;;;;14.62;36.39;100106.22;4487146;31;32254;-66
2022/04/11 08:24:16;;;;;;;;;;;;;;;15.41;34.27;100117.25;4485497;31;33303;-67
2022/04/11 08:26:45;;;;;;;;;;;;;;;14.73;35.35;100116.03;4485102;31;33403;-67
2022/04/11 08:29:14;;;;;;;;;;;;;;;15.25;34.55;100115.06;4488245;31;35012;-66
2022/04/11 08:31:44;;;;;;;;;;;;;;;15.11;33.70;100110.00;4496488;31;32360;-68
2022/04/11 08:34:14;;;;;;;;;;;;;;;15.26;34.73;100110.53;4489679;31;34129;-66
2022/04/11 08:36:45;;;;;;;;;;;;;;;15.26;34.47;100111.37;4482752;31;35221;-67
2022/04/11 08:39:16;;;;;;;;;;;;;;;15.33;35.40;100108.97;4481421;32;33635;-67
2022/04/11 08:41:44;;;;;;;;;;;;;;;15.79;33.51;100103.03;4481550;32;33680;-66
2022/04/11 08:44:13;;;;;;;;;;;;;;;15.42;34.06;100115.41;4485897;31;34066;-66
2022/04/11 08:46:42;;;;;;;;;;;;;;;15.95;33.14;100107.88;4487600;31;34031;-66
2022/04/11 08:49:11;;;;;;;;;;;;;;;16.12;33.02;100108.19;4477263;32;34346;-65
2022/04/11 08:51:40;;;;;;;;;;;;;;;15.44;33.72;100108.00;4481073;31;33626;-67
2022/04/11 08:54:09;;;;;;;;;;;;;;;14.85;33.77;100104.22;4481083;32;32956;-67
2022/04/11 08:56:37;;;;;;;;;;;;;;;15.55;32.97;100099.81;4465852;32;33457;-66
2022/04/11 08:59:05;;;;;;;;;;;;;;;15.36;32.99;100093.38;4484013;31;33183;-66
2022/04/11 09:01:35;;;;;;;;;;;;;;;14.88;33.63;100098.56;4484744;31;34258;-66
2022/04/11 09:04:03;;;;;;;;;;;;;;;14.69;34.26;100093.91;4487052;31;34866;-66
2022/04/11 09:06:33;;;;;;;;;;;;;;;14.87;35.10;100094.16;4480612;31;35485;-65
2022/04/11 09:09:03;;;;;;;;;;;;;;;15.28;34.06;100095.91;4468189;32;33816;-69
2022/04/11 09:11:34;;;;;;;;;;;;;;;16.05;31.70;100100.66;4482631;31;32986;-66
2022/04/11 09:14:03;;;;;;;;;;;;;;;16.27;33.63;100083.28;4492341;31;33238;-68
2022/04/11 09:16:51;;;;;;;;;;;;;;;15.70;31.78;100084.13;4486008;31;34379;-68
2022/04/11 09:19:21;;;;;;;;;;;;;;;16.43;30.95;100095.38;4484656;31;34562;-68
2022/04/11 09:22:10;;;;;;;;;;;;;;;16.64;30.81;100087.09;4486485;31;33214;-68
2022/04/11 09:24:46;;;;;;;;;;;;;;;16.79;30.33;100083.00;4490826;31;35049;-66
2022/04/11 09:27:25;;;;;;;;;;;;;;;16.84;30.93;100091.50;4487662;31;34677;-69
2022/04/11 09:29:53;;;;;;;;;;;;;;;16.90;30.24;100082.78;4489050;31;33407;-67
2022/04/11 09:32:21;;;;;;;;;;;;;;;15.86;32.32;100087.16;4487890;31;32086;-70
2022/04/11 09:34:53;;;;;;;;;;;;;;;16.05;32.75;100083.56;4496666;31;34174;-69
2022/04/11 09:37:22;;;;;;;;;;;;;;;16.83;31.06;100091.66;4490432;31;33112;-67
2022/04/11 09:39:57;;;;;;;;;;;;;;;16.49;31.92;100082.13;4469690;32;34109;-67
2022/04/11 09:42:31;;;;;;;;;;;;;;;16.10;32.07;100078.63;4488516;31;34224;-67
2022/04/11 09:45:00;;;;;;;;;;;;;;;16.40;30.84;100076.75;4498043;31;33782;-67
2022/04/11 09:48:01;;;;;;;;;;;;;;;17.39;29.86;100069.06;4495859;31;33024;-68
2022/04/11 09:50:29;;;;;;;;;;;;;;;17.25;30.92;100077.69;4487579;31;33280;-68
2022/04/11 09:53:08;;;;;;;;;;;;;;;16.47;32.39;100076.03;4481918;31;32021;-74
2022/04/11 09:55:36;;;;;;;;;;;;;;;17.02;29.95;100080.78;4487277;31;33902;-68
2022/04/11 09:58:06;;;;;;;;;;;;;;;16.48;30.86;100091.25;4487146;31;35331;-68
2022/04/11 10:00:35;;;;;;;;;;;;;;;16.85;29.75;100082.38;4492588;31;34853;-67
2022/04/11 10:03:05;;;;;;;;;;;;;;;15.94;30.93;100089.97;4494244;31;33555;-68
2022/04/11 10:05:37;;;;;;;;;;;;;;;16.07;31.53;100082.44;4493697;31;33310;-68
2022/04/11 10:08:06;;;;;;;;;;;;;;;15.90;31.59;100085.88;4493095;31;34269;-71
2022/04/11 10:10:35;;;;;;;;;;;;;;;16.04;30.76;100085.44;4496776;31;33823;-67
2022/04/11 10:13:13;;;;;;;;;;;;;;;15.75;31.07;100079.16;4490253;31;32097;-66
2022/04/11 10:15:47;;;;;;;;;;;;;;;14.56;34.13;100077.94;4483325;31;32810;-67
2022/04/11 10:18:27;;;;;;;;;;;;;;;15.23;32.93;100084.66;4482928;31;35114;-68
2022/04/11 10:21:01;;;;;;;;;;;;;;;15.37;31.00;100084.28;4473877;31;32835;-67
2022/04/11 10:24:01;;;;;;;;;;;;;;;15.35;29.64;100088.13;4481890;31;32255;-67
2022/04/11 10:26:44;;;;;;;;;;;;;;;15.81;29.01;100087.53;4474814;32;34485;-67
2022/04/11 10:29:32;;;;;;;;;;;;;;;15.83;29.56;100082.03;4489544;31;33584;-68
2022/04/11 10:32:09;;;;;;;;;;;;;;;16.01;29.26;100080.31;4485878;31;34197;-68
2022/04/11 10:35:08;;;;;;;;;;;;;;;16.34;28.92;100083.59;4498588;31;34540;-68
2022/04/11 10:37:57;;;;;;;;;;;;;;;16.21;27.88;100080.31;4494759;31;34011;-68
2022/04/11 10:40:35;;;;;;;;;;;;;;;16.84;24.95;100086.09;4488726;31;34403;-68
2022/04/11 10:43:09;;;;;;;;;;;;;;;17.25;24.96;100075.84;4491196;31;33631;-72
2022/04/11 10:45:59;;;;;;;;;;;;;;;17.38;23.95;100080.91;4497630;31;33355;-71
2022/04/11 10:48:49;;;;;;;;;;;;;;;16.30;26.65;100082.16;4492312;31;34258;-67
2022/04/11 10:51:23;;;;;;;;;;;;;;;16.44;25.93;100087.13;4469920;32;34023;-70
2022/04/11 10:54:13;;;;;;;;;;;;;;;16.57;25.62;100081.44;4483355;31;33747;-68
2022/04/11 10:57:05;;;;;;;;;;;;;;;15.88;28.55;100078.91;4483382;31;32078;-68
2022/04/11 10:59:54;;;;;;;;;;;;;;;16.92;26.79;100067.28;4483665;31;34088;-68
2022/04/11 11:02:27;;;;;;;;;;;;;;;17.37;27.27;100074.63;4497960;31;34508;-68
2022/04/11 11:04:59;;;;;;;;;;;;;;;17.10;26.38;100080.03;4480692;31;34863;-69
2022/04/11 11:07:32;;;;;;;;;;;;;;;16.87;26.22;100077.69;4484331;31;31884;-68
2022/04/11 11:10:08;;;;;;;;;;;;;;;16.75;25.12;100078.84;4492727;31;32901;-71
2022/04/11 11:12:48;;;;;;;;;;;;;;;16.83;26.00;100078.13;4485079;31;34612;-68
2022/04/11 11:15:26;;;;;;;;;;;;;;;17.44;24.84;100070.31;4486649;31;32938;-73
2022/04/11 11:18:04;;;;;;;;;;;;;;;17.80;24.36;100061.44;4486419;31;33242;-68
2022/04/11 11:20:40;;;;;;;;;;;;;;;17.38;25.73;100070.91;4490354;31;32884;-68
2022/04/11 11:23:13;;;;;;;;;;;;;;;16.96;27.07;100062.44;4477813;31;34861;-68
2022/04/11 11:25:45;;;;;;;;;;;;;;;16.67;28.33;100067.91;4482178;31;33805;-68
2022/04/11 11:28:19;;;;;;;;;;;;;;;16.77;28.64;100064.19;4483756;31;33849;-68
2022/04/11 11:30:48;;;;;;;;;;;;;;;17.13;27.22;100053.53;4468588;32;32250;-68
2022/04/11 11:33:19;;;;;;;;;;;;;;;17.59;26.45;100057.16;4482488;32;34325;-68
2022/04/11 11:35:51;;;;;;;;;;;;;;;17.40;24.64;100051.84;4480775;32;33095;-67
2022/04/11 11:38:22;;;;;;;;;;;;;;;16.91;23.41;100056.59;4480205;32;33296;-70
2022/04/11 11:41:01;;;;;;;;;;;;;;;16.72;23.60;100046.66;4481646;32;34109;-69
2022/04/11 11:43:29;;;;;;;;;;;;;;;17.50;23.37;100043.66;4480867;32;33118;-68
2022/04/11 11:46:07;;;;;;;;;;;;;;;17.85;24.97;100046.44;4473408;31;34332;-67
2022/04/11 11:48:45;;;;;;;;;;;;;;;17.72;23.81;100048.66;4482414;31;31493;-68
2022/04/11 11:51:24;;;;;;;;;;;;;;;17.57;25.37;100053.72;4493566;31;34188;-69
2022/04/11 11:54:05;;;;;;;;;;;;;;;17.67;27.21;100049.09;4485527;31;33110;-68
2022/04/11 11:56:41;;;;;;;;;;;;;;;18.18;25.35;100051.31;4483106;31;33164;-71
2022/04/11 11:59:15;;;;;;;;;;;;;;;17.34;25.69;100056.00;4487633;31;33868;-67
2022/04/11 12:04:18;;;;;;;;;;;;;;;17.21;25.27;100042.81;4481841;31;33948;-68
2022/04/11 12:04:45;;;;;;;;;;;;;;;17.16;25.77;100047.81;4483311;31;33318;-66
2022/04/11 12:07:23;;;;;;;;;;;;;;;17.73;25.77;100038.66;4490301;31;33000;-66
2022/04/11 12:09:54;;;;;;;;;;;;;;;17.23;26.43;100027.28;4481999;31;32131;-66
2022/04/11 12:12:23;;;;;;;;;;;;;;;16.97;26.92;100035.22;4484602;31;32815;-66
2022/04/11 12:15:02;;;;;;;;;;;;;;;17.05;26.64;100033.66;4475402;31;33435;-67
2022/04/11 12:17:36;;;;;;;;;;;;;;;17.61;24.91;100036.16;4493359;31;33138;-67
2022/04/11 12:20:07;;;;;;;;;;;;;;;17.49;24.81;100050.06;4483947;31;33745;-69
2022/04/11 12:22:38;;;;;;;;;;;;;;;16.80;25.88;100037.88;4480680;31;32973;-66
2022/04/11 12:25:19;;;;;;;;;;;;;;;16.33;24.63;100044.06;4477478;31;34120;-67
2022/04/11 12:27:50;;;;;;;;;;;;;;;17.06;24.73;100036.19;4473328;31;33791;-66
2022/04/11 12:30:24;;;;;;;;;;;;;;;17.57;24.71;100026.66;4486348;31;34014;-66
2022/04/11 12:32:55;;;;;;;;;;;;;;;17.11;24.61;100022.22;4490796;31;32142;-70
2022/04/11 12:35:26;;;;;;;;;;;;;;;16.96;24.95;100016.47;4479723;32;33237;-66
2022/04/11 12:38:08;;;;;;;;;;;;;;;16.73;26.69;100011.41;4481676;31;33107;-67
2022/04/11 12:40:49;;;;;;;;;;;;;;;17.38;25.38;100003.28;4486951;31;32304;-66
2022/04/11 12:43:34;;;;;;;;;;;;;;;16.60;24.25;100013.59;4486156;31;33960;-70
2022/04/11 12:46:11;;;;;;;;;;;;;;;17.29;23.62;100004.19;4470103;31;32915;-67
2022/04/11 12:48:59;;;;;;;;;;;;;;;16.93;24.07;100003.25;4488845;31;34282;-68
2022/04/11 12:51:41;;;;;;;;;;;;;;;16.93;24.53;100009.50;4484961;31;33514;-66
2022/04/11 12:54:14;;;;;;;;;;;;;;;17.05;24.36;100003.91;4484825;31;32965;-66
2022/04/11 12:56:44;;;;;;;;;;;;;;;16.85;24.83;100008.53;4484209;31;34376;-66
2022/04/11 12:59:41;;;;;;;;;;;;;;;16.85;24.93;100003.13;4482209;32;32733;-67
2022/04/11 13:02:10;;;;;;;;;;;;;;;16.15;27.33;100021.50;4480854;31;33496;-67